createdAt,value
2023-03-21T00:01:50.305Z,100.00
2023-03-21T00:04:17.482Z,100.00
2023-03-21T00:06:44.103Z,100.00
2023-03-21T00:09:11.334Z,100.00
2023-03-21T00:11:37.857Z,100.00
2023-03-21T00:14:05.884Z,100.00
2023-03-21T00:16:35.268Z,100.00
2023-03-21T00:19:03.584Z,100.00
2023-03-21T00:22:03.637Z,100.00
2023-03-21T00:24:18.846Z,100.00
2023-03-21T00:26:46.182Z,100.00
2023-03-21T00:29:12.942Z,100.00
2023-03-21T00:31:39.507Z,100.00
2023-03-21T00:34:05.983Z,100.00
2023-03-21T00:36:32.925Z,100.00
2023-03-21T00:39:00.865Z,100.00
2023-03-21T00:41:41.622Z,100.00
2023-03-21T00:44:11.673Z,100.00
2023-03-21T00:47:06.301Z,100.00
2023-03-21T00:49:25.960Z,100.00
2023-03-21T00:51:55.368Z,100.00
2023-03-21T00:54:23.821Z,100.00
2023-03-21T00:56:50.396Z,100.00
2023-03-21T00:59:17.321Z,100.00
2023-03-21T01:01:46.543Z,100.00
2023-03-21T01:04:16.608Z,100.00
2023-03-21T01:06:44.340Z,100.00
2023-03-21T01:09:17.824Z,100.00
2023-03-21T01:11:45.108Z,100.00
2023-03-21T01:14:23.976Z,100.00
2023-03-21T01:16:52.574Z,100.00
2023-03-21T01:19:30.990Z,100.00
2023-03-21T01:22:04.926Z,100.00
2023-03-21T01:24:32.425Z,100.00
2023-03-21T01:27:02.609Z,100.00
2023-03-21T01:29:29.194Z,100.00
2023-03-21T01:31:55.904Z,100.00
2023-03-21T01:34:22.783Z,100.00
2023-03-21T01:36:49.305Z,100.00
2023-03-21T01:39:15.914Z,100.00
2023-03-21T01:41:45.819Z,100.00
2023-03-21T01:44:17.930Z,100.00
2023-03-21T01:47:11.521Z,100.00
2023-03-21T01:49:46.062Z,100.00
2023-03-21T01:52:29.678Z,100.00
2023-03-21T01:55:04.636Z,100.00
2023-03-21T01:57:43.873Z,100.00
2023-03-21T02:00:15.315Z,100.00
2023-03-21T02:02:52.143Z,100.00
2023-03-21T02:05:25.334Z,100.00
2023-03-21T02:07:53.046Z,100.00
2023-03-21T02:10:19.820Z,100.00
2023-03-21T02:12:46.345Z,100.00
2023-03-21T02:15:13.208Z,100.00
2023-03-21T02:17:56.697Z,100.00
2023-03-21T02:21:02.200Z,100.00
2023-03-21T02:23:34.767Z,100.00
2023-03-21T02:26:23.466Z,100.00
2023-03-21T02:28:58.425Z,100.00
2023-03-21T02:31:36.356Z,100.00
2023-03-21T02:34:21.003Z,100.00
2023-03-21T02:37:17.146Z,100.00
2023-03-21T02:39:54.980Z,100.00
2023-03-21T02:42:29.133Z,100.00
2023-03-21T02:45:09.137Z,100.00
2023-03-21T02:47:44.337Z,100.00
2023-03-21T02:50:17.286Z,100.00
2023-03-21T02:52:47.762Z,100.00
2023-03-21T02:55:26.665Z,100.00
2023-03-21T02:57:56.439Z,100.00
2023-03-21T03:00:27.899Z,100.00
2023-03-21T03:03:08.187Z,100.00
2023-03-21T03:05:41.357Z,100.00
2023-03-21T03:08:53.067Z,100.00
2023-03-21T03:11:28.775Z,100.00
2023-03-21T03:15:00.148Z,100.00
2023-03-21T03:17:40.392Z,100.00
2023-03-21T03:20:25.639Z,100.00
2023-03-21T03:23:07.993Z,100.00
2023-03-21T03:25:46.166Z,100.00
2023-03-21T03:28:15.826Z,100.00
2023-03-21T03:30:54.304Z,100.00
2023-03-21T03:33:29.706Z,100.00
2023-03-21T03:36:05.586Z,100.00
2023-03-21T03:38:36.483Z,100.00
2023-03-21T03:41:15.554Z,100.00
2023-03-21T03:43:48.728Z,100.00
2023-03-21T03:46:19.873Z,100.00
2023-03-21T03:48:54.829Z,100.00
2023-03-21T03:51:24.438Z,100.00
2023-03-21T03:53:55.763Z,100.00
2023-03-21T03:56:22.480Z,100.00
2023-03-21T03:58:49.448Z,100.00
2023-03-21T04:01:16.063Z,100.00
2023-03-21T04:03:50.745Z,100.00
2023-03-21T04:06:20.096Z,100.00
2023-03-21T04:08:46.722Z,100.00
2023-03-21T04:11:15.953Z,100.00
2023-03-21T04:13:42.621Z,100.00
2023-03-21T04:16:11.954Z,100.00
2023-03-21T04:18:39.311Z,100.00
2023-03-21T04:21:12.827Z,100.00
2023-03-21T04:23:40.348Z,100.00
2023-03-21T04:26:07.516Z,100.00
2023-03-21T04:28:36.111Z,100.00
2023-03-21T04:31:13.521Z,100.00
2023-03-21T04:33:47.897Z,100.00
2023-03-21T04:36:25.128Z,100.00
2023-03-21T04:41:38.016Z,100.00
2023-03-21T04:44:04.490Z,100.00
2023-03-21T04:46:31.039Z,100.00
2023-03-21T04:48:57.498Z,100.00
2023-03-21T04:51:24.015Z,100.00
2023-03-21T04:53:52.460Z,100.00
2023-03-21T04:56:19.280Z,100.00
2023-03-21T04:58:45.769Z,100.00
2023-03-21T05:01:14.506Z,100.00
2023-03-21T05:03:41.629Z,100.00
2023-03-21T05:06:09.076Z,100.00
2023-03-21T05:08:36.118Z,100.00
2023-03-21T05:11:03.360Z,100.00
2023-03-21T05:13:29.861Z,100.00
2023-03-21T05:15:56.692Z,100.00
2023-03-21T05:18:24.922Z,100.00
2023-03-21T05:20:55.790Z,100.00
2023-03-21T05:23:23.503Z,100.00
2023-03-21T05:25:50.752Z,100.00
2023-03-21T05:28:18.287Z,100.00
2023-03-21T05:30:46.160Z,100.00
2023-03-21T05:33:13.212Z,100.00
2023-03-21T05:35:40.310Z,100.00
2023-03-21T05:38:09.224Z,100.00
2023-03-21T05:40:35.860Z,100.00
2023-03-21T05:45:28.815Z,100.00
2023-03-21T05:47:55.388Z,100.00
2023-03-21T05:50:21.883Z,100.00
2023-03-21T05:52:48.363Z,100.00
2023-03-21T05:55:14.823Z,100.00
2023-03-21T05:57:43.433Z,100.00
2023-03-21T06:00:10.718Z,100.00
2023-03-21T06:02:37.479Z,100.00
2023-03-21T06:05:04.700Z,100.00
2023-03-21T06:07:34.409Z,100.00
2023-03-21T06:10:01.470Z,100.00
2023-03-21T06:12:28.780Z,100.00
2023-03-21T06:14:55.799Z,100.00
2023-03-21T06:17:22.808Z,100.00
2023-03-21T06:22:18.294Z,100.00
2023-03-21T06:24:51.837Z,100.00
2023-03-21T06:27:19.542Z,100.00
2023-03-21T06:29:47.527Z,100.00
2023-03-21T06:32:15.246Z,100.00
2023-03-21T06:34:42.936Z,100.00
2023-03-21T06:37:09.870Z,100.00
2023-03-21T06:39:37.739Z,100.00
2023-03-21T06:42:11.198Z,100.00
2023-03-21T06:44:40.243Z,100.00
2023-03-21T06:47:07.252Z,100.00
2023-03-21T06:49:34.353Z,100.00
2023-03-21T06:52:01.826Z,100.00
2023-03-21T06:54:28.648Z,100.00
2023-03-21T06:56:56.075Z,100.00
2023-03-21T06:59:26.188Z,100.00
2023-03-21T07:04:20.395Z,100.00
2023-03-21T07:06:47.685Z,100.00
2023-03-21T07:09:18.497Z,100.00
2023-03-21T07:11:45.506Z,100.00
2023-03-21T07:14:12.302Z,100.00
2023-03-21T07:16:39.049Z,100.00
2023-03-21T07:19:06.140Z,100.00
2023-03-21T07:21:32.767Z,100.00
2023-03-21T07:26:26.468Z,100.00
2023-03-21T07:28:53.313Z,100.00
2023-03-21T07:31:20.513Z,100.00
2023-03-21T07:33:48.630Z,100.00
2023-03-21T07:36:16.857Z,100.00
2023-03-21T07:38:45.802Z,100.00
2023-03-21T07:43:46.767Z,100.00
2023-03-21T07:46:13.757Z,100.00
2023-03-21T07:48:40.544Z,100.00
2023-03-21T07:51:08.000Z,100.00
2023-03-21T07:53:34.940Z,100.00
2023-03-21T07:56:01.809Z,100.00
2023-03-21T07:58:28.860Z,100.00
2023-03-21T08:00:58.840Z,100.00
2023-03-21T08:03:29.493Z,100.00
2023-03-21T08:08:23.587Z,100.00
2023-03-21T08:10:50.482Z,100.00
2023-03-21T08:13:17.164Z,100.00
2023-03-21T08:15:44.186Z,100.00
2023-03-21T08:18:11.862Z,100.00
2023-03-21T08:20:45.169Z,100.00
2023-03-21T08:23:13.901Z,100.00
2023-03-21T08:25:40.913Z,100.00
2023-03-21T08:28:11.466Z,100.00
2023-03-21T08:30:40.554Z,100.00
2023-03-21T08:33:08.602Z,100.00
2023-03-21T08:35:35.621Z,85.82
2023-03-21T08:38:07.186Z,83.92
2023-03-21T08:40:34.614Z,78.41
2023-03-21T08:43:01.886Z,73.37
2023-03-21T08:45:29.890Z,79.04
2023-03-21T08:50:27.132Z,98.05
2023-03-21T08:52:58.106Z,100.00
2023-03-21T08:55:25.175Z,100.00
2023-03-21T08:58:09.854Z,100.00
2023-03-21T09:00:39.497Z,100.00
2023-03-21T09:03:17.398Z,100.00
2023-03-21T09:05:47.634Z,100.00
2023-03-21T09:10:56.718Z,100.00
2023-03-21T09:13:26.887Z,97.20
2023-03-21T09:15:55.416Z,98.71
2023-03-21T09:18:48.007Z,99.59
2023-03-21T09:21:16.956Z,100.00
2023-03-21T09:23:47.031Z,100.00
2023-03-21T09:28:45.807Z,100.00
2023-03-21T09:31:16.900Z,100.00
2023-03-21T09:33:46.905Z,93.74
2023-03-21T09:36:19.399Z,93.39
2023-03-21T09:38:48.386Z,99.09
2023-03-21T09:41:35.873Z,100.00
2023-03-21T09:44:15.606Z,100.00
2023-03-21T09:47:14.123Z,100.00
2023-03-21T09:49:49.308Z,100.00
2023-03-21T09:52:32.480Z,100.00
2023-03-21T09:57:45.684Z,100.00
2023-03-21T10:00:22.725Z,100.00
2023-03-21T10:02:57.324Z,99.68
2023-03-21T10:05:29.648Z,95.72
2023-03-21T10:08:27.872Z,85.25
2023-03-21T10:13:35.575Z,56.97
2023-03-21T10:16:14.903Z,58.58
2023-03-21T10:18:44.838Z,57.63
2023-03-21T10:21:42.968Z,61.82
2023-03-21T10:24:14.281Z,68.13
2023-03-21T10:26:42.644Z,77.74
2023-03-21T10:29:14.648Z,76.28
2023-03-21T10:31:46.744Z,68.92
2023-03-21T10:34:20.976Z,70.57
2023-03-21T10:36:48.971Z,70.13
2023-03-21T10:39:32.546Z,71.89
2023-03-21T10:42:00.861Z,73.33
2023-03-21T10:44:34.349Z,72.78
2023-03-21T10:49:56.459Z,74.61
2023-03-21T10:52:31.104Z,75.46
2023-03-21T10:55:29.374Z,78.25
2023-03-21T10:58:07.965Z,79.89
2023-03-21T11:00:40.042Z,78.79
2023-03-21T11:03:32.372Z,78.02
2023-03-21T11:06:08.499Z,82.63
2023-03-21T11:08:48.022Z,81.47
2023-03-21T11:11:34.318Z,85.29
2023-03-21T11:14:07.444Z,83.06
2023-03-21T11:16:44.314Z,82.42
2023-03-21T11:19:25.412Z,85.08
2023-03-21T11:21:52.650Z,88.69
2023-03-21T11:24:23.563Z,90.26
2023-03-21T11:26:52.068Z,93.84
2023-03-21T11:29:54.814Z,90.49
2023-03-21T11:32:35.341Z,90.07
2023-03-21T11:35:15.533Z,90.52
2023-03-21T11:37:49.324Z,90.53
2023-03-21T11:40:35.899Z,89.75
2023-03-21T11:46:19.500Z,93.09
2023-03-21T11:48:49.348Z,91.48
2023-03-21T11:51:44.203Z,91.77
2023-03-21T11:54:20.753Z,90.85
2023-03-21T11:56:54.686Z,93.86
2023-03-21T11:59:40.551Z,94.25
2023-03-21T12:02:13.588Z,90.58
2023-03-21T12:04:47.280Z,92.79
2023-03-21T12:14:14.977Z,92.04
2023-03-21T12:39:30.325Z,92.08
2023-03-21T12:42:25.194Z,93.02
2023-03-21T12:45:18.622Z,91.16
2023-03-21T12:47:51.988Z,92.60
2023-03-21T12:50:25.056Z,92.17
2023-03-21T12:55:42.823Z,94.16
2023-03-21T13:00:53.531Z,95.87
2023-03-21T13:03:40.160Z,95.55
2023-03-21T13:06:18.462Z,98.57
2023-03-21T13:08:52.972Z,99.77
2023-03-21T13:11:26.723Z,96.18
2023-03-21T13:16:45.132Z,93.83
2023-03-21T13:19:27.582Z,91.62
2023-03-21T13:22:21.290Z,89.91
2023-03-21T13:25:06.948Z,93.42
2023-03-21T13:27:36.880Z,91.08
2023-03-21T13:30:07.740Z,94.20
2023-03-21T13:32:43.141Z,91.55
2023-03-21T13:37:58.755Z,88.94
2023-03-21T13:40:29.602Z,92.39
2023-03-21T13:43:00.129Z,93.23
2023-03-21T13:45:32.618Z,90.28
2023-03-21T13:48:03.736Z,91.38
2023-03-21T13:50:36.626Z,93.72
2023-03-21T13:53:15.595Z,95.03
2023-03-21T13:55:49.423Z,92.10
2023-03-21T13:58:39.627Z,92.93
2023-03-21T14:01:30.881Z,97.46
2023-03-21T14:04:18.221Z,99.08
2023-03-21T14:07:08.062Z,100.00
2023-03-21T14:09:49.590Z,100.00
2023-03-21T14:12:35.026Z,100.00
2023-03-21T14:15:17.028Z,100.00
2023-03-21T14:18:28.264Z,100.00
2023-03-21T14:21:05.150Z,97.47
2023-03-21T14:23:37.133Z,97.20
2023-03-21T14:26:04.452Z,98.81
2023-03-21T14:28:35.942Z,99.74
2023-03-21T14:31:07.227Z,98.37
2023-03-21T14:36:15.874Z,94.27
2023-03-21T14:38:47.278Z,92.81
2023-03-21T14:41:26.847Z,96.76
2023-03-21T14:44:08.843Z,93.35
2023-03-21T14:46:37.885Z,95.17
2023-03-21T14:49:23.501Z,98.05
2023-03-21T14:51:52.203Z,98.88
2023-03-21T14:54:20.076Z,96.84
2023-03-21T14:56:51.535Z,92.81
2023-03-21T14:59:24.314Z,91.87
2023-03-21T15:01:54.914Z,93.33
2023-03-21T15:04:22.571Z,97.61
2023-03-21T15:06:53.541Z,99.42
2023-03-21T15:09:24.774Z,100.00
2023-03-21T15:11:53.154Z,100.00
2023-03-21T15:14:26.371Z,100.00
2023-03-21T15:16:54.879Z,100.00
2023-03-21T15:19:28.796Z,100.00
2023-03-21T15:22:05.907Z,100.00
2023-03-21T15:24:41.029Z,100.00
2023-03-21T15:29:59.568Z,100.00
2023-03-21T15:32:28.566Z,100.00
2023-03-21T15:35:05.159Z,100.00
2023-03-21T15:37:36.769Z,100.00
2023-03-21T15:40:37.293Z,100.00
2023-03-21T15:43:06.541Z,100.00
2023-03-21T15:45:33.371Z,100.00
2023-03-21T15:48:03.551Z,100.00
2023-03-21T15:50:40.674Z,100.00
2023-03-21T15:53:19.622Z,100.00
2023-03-21T15:56:01.968Z,100.00
2023-03-21T15:58:36.650Z,100.00
2023-03-21T16:01:11.091Z,100.00
2023-03-21T16:03:41.990Z,100.00
2023-03-21T16:06:12.612Z,100.00
2023-03-21T16:08:46.192Z,100.00
2023-03-21T16:11:39.796Z,100.00
2023-03-21T16:14:07.843Z,100.00
2023-03-21T16:16:36.549Z,100.00
2023-03-21T16:19:04.515Z,100.00
2023-03-21T16:21:37.204Z,100.00
2023-03-21T16:24:10.428Z,100.00
2023-03-21T16:26:51.826Z,100.00
2023-03-21T16:29:24.487Z,100.00
2023-03-21T16:31:57.477Z,100.00
2023-03-21T16:34:24.723Z,100.00
2023-03-21T16:37:03.037Z,100.00
2023-03-21T16:39:30.038Z,100.00
2023-03-21T16:41:57.276Z,100.00
2023-03-21T16:44:29.745Z,100.00
2023-03-21T16:46:56.843Z,100.00
2023-03-21T16:49:29.084Z,100.00
2023-03-21T16:51:59.554Z,100.00
2023-03-21T16:54:44.670Z,100.00
2023-03-21T16:57:30.481Z,100.00
2023-03-21T17:00:03.890Z,100.00
2023-03-21T17:02:31.522Z,100.00
2023-03-21T17:04:59.784Z,100.00
2023-03-21T17:07:28.561Z,100.00
2023-03-21T17:09:58.630Z,100.00
2023-03-21T17:12:28.092Z,100.00
2023-03-21T17:14:57.560Z,100.00
2023-03-21T17:17:31.064Z,100.00
2023-03-21T17:20:01.166Z,100.00
2023-03-21T17:22:30.823Z,100.00
2023-03-21T17:25:06.194Z,100.00
2023-03-21T17:27:36.192Z,100.00
2023-03-21T17:30:06.752Z,100.00
2023-03-21T17:32:34.063Z,100.00
2023-03-21T17:35:00.963Z,100.00
2023-03-21T17:37:27.906Z,100.00
2023-03-21T17:39:54.533Z,100.00
2023-03-21T17:42:32.504Z,100.00
2023-03-21T17:44:59.658Z,100.00
2023-03-21T17:47:26.590Z,100.00
2023-03-21T17:49:53.328Z,100.00
2023-03-21T17:52:20.060Z,100.00
2023-03-21T17:54:47.327Z,100.00
2023-03-21T17:57:13.971Z,100.00
2023-03-21T17:59:40.639Z,100.00
2023-03-21T18:02:07.413Z,100.00
2023-03-21T18:04:35.444Z,100.00
2023-03-21T18:07:02.688Z,100.00
2023-03-21T18:09:29.713Z,100.00
2023-03-21T18:12:09.380Z,100.00
2023-03-21T18:14:44.398Z,100.00
2023-03-21T18:17:11.462Z,100.00
2023-03-21T18:19:38.490Z,100.00
2023-03-21T18:22:12.224Z,100.00
2023-03-21T18:24:41.933Z,100.00
2023-03-21T18:27:14.900Z,100.00
2023-03-21T18:30:22.126Z,100.00
2023-03-21T18:32:31.889Z,100.00
2023-03-21T18:35:04.220Z,100.00
2023-03-21T18:37:31.492Z,100.00
2023-03-21T18:39:59.285Z,100.00
2023-03-21T18:42:36.767Z,100.00
2023-03-21T18:45:05.773Z,100.00
2023-03-21T18:47:32.587Z,100.00
2023-03-21T18:50:16.251Z,100.00
2023-03-21T18:52:43.520Z,100.00
2023-03-21T18:55:10.444Z,100.00
2023-03-21T18:57:38.840Z,100.00
2023-03-21T19:00:13.163Z,100.00
2023-03-21T19:02:46.373Z,100.00
2023-03-21T19:05:14.882Z,100.00
2023-03-21T19:07:41.974Z,100.00
2023-03-21T19:10:18.555Z,100.00
2023-03-21T19:12:50.585Z,100.00
2023-03-21T19:15:21.677Z,100.00
2023-03-21T19:18:33.071Z,100.00
2023-03-21T19:20:58.748Z,100.00
2023-03-21T19:23:40.836Z,100.00
2023-03-21T19:26:16.561Z,100.00
2023-03-21T19:28:46.245Z,100.00
2023-03-21T19:31:16.555Z,100.00
2023-03-21T19:33:46.408Z,100.00
2023-03-21T19:36:21.929Z,100.00
2023-03-21T19:38:49.522Z,100.00
2023-03-21T19:41:16.688Z,100.00
2023-03-21T19:43:53.698Z,100.00
2023-03-21T19:46:25.024Z,100.00
2023-03-21T19:48:57.145Z,100.00
2023-03-21T19:51:29.755Z,100.00
2023-03-21T19:54:05.690Z,100.00
2023-03-21T19:56:34.531Z,100.00
2023-03-21T19:59:03.275Z,100.00
2023-03-21T20:01:34.133Z,100.00
2023-03-21T20:04:02.526Z,100.00
2023-03-21T20:06:29.638Z,100.00
2023-03-21T20:09:41.328Z,100.00
2023-03-21T20:11:45.849Z,100.00
2023-03-21T20:14:12.741Z,100.00
2023-03-21T20:16:43.336Z,100.00
2023-03-21T20:19:21.674Z,100.00
2023-03-21T20:21:56.901Z,100.00
2023-03-21T20:24:26.651Z,100.00
2023-03-21T20:26:53.879Z,100.00
2023-03-21T20:32:10.364Z,100.00
2023-03-21T20:34:40.405Z,100.00
2023-03-21T20:37:08.348Z,100.00
2023-03-21T20:39:35.357Z,100.00
2023-03-21T20:42:07.870Z,100.00
2023-03-21T20:44:48.401Z,100.00
2023-03-21T20:47:21.552Z,100.00
2023-03-21T20:49:53.648Z,100.00
2023-03-21T20:55:14.269Z,100.00
2023-03-21T20:57:44.316Z,100.00
2023-03-21T21:00:15.137Z,100.00
2023-03-21T21:02:47.023Z,100.00
2023-03-21T21:05:34.581Z,100.00
2023-03-21T21:08:02.558Z,100.00
2023-03-21T21:10:29.734Z,100.00
2023-03-21T21:13:07.671Z,100.00
2023-03-21T21:15:34.795Z,100.00
2023-03-21T21:18:05.999Z,100.00
2023-03-21T21:20:38.789Z,100.00
2023-03-21T21:23:14.724Z,100.00
2023-03-21T21:25:43.587Z,100.00
2023-03-21T21:28:11.763Z,100.00
2023-03-21T21:30:43.668Z,100.00
2023-03-21T21:33:22.168Z,100.00
2023-03-21T21:35:55.719Z,100.00
2023-03-21T21:38:23.555Z,100.00
2023-03-21T21:40:52.088Z,100.00
2023-03-21T21:43:19.541Z,100.00
2023-03-21T21:45:47.980Z,100.00
2023-03-21T21:48:15.146Z,100.00
2023-03-21T21:50:42.504Z,100.00
2023-03-21T21:53:11.394Z,100.00
2023-03-21T21:58:08.324Z,100.00
2023-03-21T22:03:04.308Z,100.00
2023-03-21T22:05:31.523Z,100.00
2023-03-21T22:07:58.230Z,100.00
2023-03-21T22:10:27.370Z,100.00
2023-03-21T22:12:54.423Z,100.00
2023-03-21T22:15:23.901Z,100.00
2023-03-21T22:17:51.905Z,100.00
2023-03-21T22:20:20.684Z,100.00
2023-03-21T22:22:47.685Z,100.00
2023-03-21T22:25:16.405Z,100.00
2023-03-21T22:27:44.060Z,100.00
2023-03-21T22:30:13.979Z,100.00
2023-03-21T22:32:41.823Z,100.00
2023-03-21T22:35:09.521Z,100.00
2023-03-21T22:40:09.946Z,100.00
2023-03-21T22:45:06.109Z,100.00
2023-03-21T22:47:34.888Z,100.00
2023-03-21T22:50:02.241Z,100.00
2023-03-21T22:52:28.902Z,100.00
2023-03-21T22:54:55.752Z,100.00
2023-03-21T22:57:22.577Z,100.00
2023-03-21T22:59:49.405Z,100.00
2023-03-21T23:02:17.578Z,100.00
2023-03-21T23:04:44.373Z,100.00
2023-03-21T23:07:11.141Z,100.00
2023-03-21T23:12:10.329Z,100.00
2023-03-21T23:14:39.494Z,100.00
2023-03-21T23:17:06.205Z,100.00
2023-03-21T23:19:33.308Z,100.00
2023-03-21T23:22:03.509Z,100.00
2023-03-21T23:24:33.048Z,100.00
2023-03-21T23:27:00.144Z,100.00
2023-03-21T23:29:26.906Z,100.00
2023-03-21T23:31:53.523Z,100.00
2023-03-21T23:34:20.185Z,100.00
2023-03-21T23:36:49.316Z,100.00
2023-03-21T23:39:18.704Z,100.00
2023-03-21T23:41:45.408Z,100.00
2023-03-21T23:44:12.107Z,100.00
2023-03-21T23:49:05.304Z,100.00
2023-03-21T23:51:31.822Z,100.00
2023-03-21T23:53:58.670Z,100.00
2023-03-21T23:56:26.956Z,100.00
2023-03-21T23:58:54.007Z,100.00
